ATMO2: Muddy Boggy Creek at Atoka

                                SHEF ID:       ATMO2     Muddy Boggy Creek at Atoka, OK
STATION TYPE:

PRECIP STAGE RIV-FLOW VOLTAGE BAT-LOAD
in ft cfs volt volt
Ccp-Rev Ccp-Rev Ccp-Rev Ccp-Rev Ccp-Rev
(America/Chicago)
03/13 00:00 0.00 18.77 898 12.82 12.57
03/13 01:00 0.00 18.64 828 12.80 12.55
03/13 02:00 0.00 18.50 753 12.80 12.54
03/13 03:00 0.00 18.36 710 12.77 12.53
03/13 04:00 0.00 18.22 676 12.77 12.53
03/13 05:00 0.00 18.07 640 12.77 12.52
03/13 06:00 0.00 17.93 607 12.76 12.50
03/13 07:00 0.00 17.79 573 12.75 12.50
03/13 08:00 0.00 17.66 542 12.77 12.50
03/13 09:00 0.00 17.53 511 13.09 12.70
03/13 10:00 0.00 17.41 482 13.84 12.86
03/13 11:00 0.00 17.30 455 13.73 12.82
03/13 12:00 0.00 17.19 429 13.62 12.80
03/13 13:00 0.00 17.10 407 13.49 12.77
03/13 14:00 0.00 17.01 386 13.46 12.77
03/13 15:00 0.00 16.91 362 13.39 12.77
03/13 16:00 0.00 16.85 348 ---- ----
03/13 17:00 0.00 16.77 328 13.32 12.76
03/13 18:00 0.00 16.71 314 13.30 12.76
03/13 19:00 0.00 16.65 300 13.01 12.71
03/13 20:00 0.00 16.60 288 12.89 12.63
03/13 21:00 0.00 16.55 276 12.86 12.61
03/13 22:00 0.00 16.50 264 12.84 12.59
03/13 23:00 0.00 16.46 254 12.82 12.57
Data processed at Sat 14Mar2026 04:54 GMT

NOTICE: If you are parsing this page

Please convert to using our Data API. Starting early 2026 we will be migrating to: https://water.usace.army.mil with modern pages rendered in JavaScript. When this migration completes you will no longer be able to scrape this page! CWMSDataAPI (CDA)

Timeseries IDs (TSIDs)

TSIDs used from left to right in the data table
ATMB.Precip-Inc.Total.1Hour.1Hour.Ccp-Rev
ATMB.Stage.Inst.1Hour.0.Ccp-Rev
ATMB.Flow.Inst.1Hour.0.Ccp-Rev
ATMB.Volt-Battery.Inst.1Hour.0.Ccp-Rev
ATMB.Volt-Battery Load.Inst.1Hour.0.Ccp-Rev

                            

All information presented herein is the property of the government of the United States of America and may be revised or deleted at any time without prior notice. Dissemination of this information without the expressed written consent of the Public Affairs Office, Tulsa District U.S. Army Corps of Engineers is strictly prohibited. These data are gathered electronically and, as presented, have NOT undergone any form of quality control. These data are NOT guaranteed to be valid or correct.